Time;durP1;ratioP1;P1;durP2;ratioP2;P2;SDS_P1;SDS_P2;PMS_P1;PMS_P2;Temp;Humidity;BMP_temperature;BMP_pressure;BME280_temperature;BME280_humidity;BME280_pressure;Samples;Min_cycle;Max_cycle;Signal;HPM_P1;HPM_P2
2022/04/05 00:01:08;;;;;;;4.15;3.92;;;;;;;6.86;100.00;100089.97;6105382;23;20259;-67
2022/04/05 00:03:35;;;;;;;3.25;3.15;;;;;;;5.93;100.00;99958.63;6099098;23;20045;-67
2022/04/05 00:06:01;;;;;;;3.35;3.25;;;;;;;6.76;100.00;100082.56;6122427;23;20019;-67
2022/04/05 00:08:28;;;;;;;3.25;3.15;;;;;;;6.72;100.00;100085.41;6123242;23;20066;-68
2022/04/05 00:10:54;;;;;;;3.47;3.38;;;;;;;6.49;100.00;100042.97;6139781;23;20068;-66
2022/04/05 00:13:21;;;;;;;3.40;3.30;;;;;;;6.83;100.00;100064.03;6125534;23;20304;-67
2022/04/05 00:15:48;;;;;;;3.38;3.28;;;;;;;6.98;100.00;100097.22;6134146;23;20442;-67
2022/04/05 00:18:14;;;;;;;3.30;3.20;;;;;;;7.01;100.00;100104.06;6112995;23;20025;-67
2022/04/05 00:20:41;;;;;;;3.20;3.10;;;;;;;6.91;100.00;100082.78;6113627;23;20018;-70
2022/04/05 00:23:07;;;;;;;3.80;3.65;;;;;;;6.80;100.00;100054.59;6108308;23;20482;-68
2022/04/05 00:25:34;;;;;;;3.50;3.40;;;;;;;6.86;100.00;100069.13;6108235;23;20009;-68
2022/04/05 00:28:02;;;;;;;3.42;3.33;;;;;;;6.88;100.00;100080.31;6122640;23;20030;-68
2022/04/05 00:30:28;;;;;;;3.97;3.78;;;;;;;6.98;100.00;100094.63;6097670;23;20029;-67
2022/04/05 00:32:55;;;;;;;3.90;3.60;;;;;;;7.03;100.00;100105.66;6115187;23;20080;-68
2022/04/05 00:35:21;;;;;;;4.53;4.32;;;;;;;7.03;100.00;100097.00;6118403;23;20443;-68
2022/04/05 00:37:48;;;;;;;3.17;3.08;;;;;;;7.09;100.00;100100.16;6116686;23;20009;-67
2022/04/05 00:40:15;;;;;;;4.72;4.53;;;;;;;7.04;100.00;100094.31;6110329;23;20033;-67
2022/04/05 00:42:41;;;;;;;3.28;3.17;;;;;;;6.85;100.00;100046.53;6079760;23;20024;-67
2022/04/05 00:45:09;;;;;;;3.95;3.80;;;;;;;7.05;100.00;100088.19;6105456;23;20049;-67
2022/04/05 00:47:36;;;;;;;3.30;3.20;;;;;;;7.19;100.00;100097.97;6089949;23;20033;-67
2022/04/05 00:50:05;;;;;;;3.20;3.10;;;;;;;7.03;100.00;100081.34;6129230;23;20029;-67
2022/04/05 00:52:31;;;;;;;3.70;3.60;;;;;;;7.16;100.00;100088.53;6127942;23;20064;-67
2022/04/05 00:54:59;;;;;;;3.38;3.28;;;;;;;7.13;100.00;100077.38;6111008;23;20024;-68
2022/04/05 00:57:28;;;;;;;4.07;3.88;;;;;;;7.19;100.00;100075.31;6107260;23;20029;-68
2022/04/05 00:59:57;;;;;;;3.40;3.30;;;;;;;7.31;100.00;100091.31;6104758;23;20112;-68
2022/04/05 01:02:27;;;;;;;4.85;4.65;;;;;;;7.33;100.00;100094.69;6090659;23;20061;-67
2022/04/05 01:04:54;;;;;;;3.50;3.40;;;;;;;7.33;100.00;100097.31;6125300;23;20462;-67
2022/04/05 01:07:22;;;;;;;4.93;4.72;;;;;;;7.33;100.00;100097.31;6112977;23;20013;-69
2022/04/05 01:09:58;;;;;;;3.20;3.10;;;;;;;7.20;100.00;100073.56;6114924;23;20024;-69
2022/04/05 01:12:25;;;;;;;4.68;4.47;;;;;;;7.28;100.00;100089.69;6117550;23;20017;-68
2022/04/05 01:14:52;;;;;;;3.35;3.25;;;;;;;7.28;100.00;100066.22;6107774;23;20038;-67
2022/04/05 01:17:19;;;;;;;5.47;5.28;;;;;;;7.43;100.00;100108.16;6118158;23;20020;-67
2022/04/05 01:19:48;;;;;;;3.33;3.22;;;;;;;7.31;100.00;100091.31;6116660;23;20067;-68
2022/04/05 01:22:15;;;;;;;5.88;5.57;;;;;;;7.38;100.00;100101.38;6092234;23;20344;-68
2022/04/05 01:24:42;;;;;;;3.30;3.20;;;;;;;7.44;100.00;100105.47;6099866;23;20025;-69
2022/04/05 01:27:08;;;;;;;3.88;3.72;;;;;;;7.32;100.00;100088.63;6110654;23;20025;-69
2022/04/05 01:29:35;;;;;;;3.40;3.30;;;;;;;7.53;100.00;100105.00;6100461;23;20033;-69
2022/04/05 01:32:07;;;;;;;3.92;3.75;;;;;;;7.56;100.00;100117.09;6119402;23;20497;-68
2022/04/05 01:34:36;;;;;;;3.40;3.30;;;;;;;7.56;100.00;100117.91;6114294;23;20501;-67
2022/04/05 01:37:05;;;;;;;3.40;3.30;;;;;;;7.61;100.00;100109.00;6113202;23;20041;-68
2022/04/05 01:39:33;;;;;;;3.40;3.30;;;;;;;7.49;100.00;100092.19;6116192;23;20014;-68
2022/04/05 01:42:06;;;;;;;3.60;3.50;;;;;;;7.62;100.00;100122.00;6129006;23;20073;-68
2022/04/05 01:44:33;;;;;;;;;;;;;;;7.64;100.00;100117.53;6109223;23;20088;-67
2022/04/05 01:47:18;;;;;;;4.03;3.78;;;;;;;7.52;100.00;100097.25;6108001;23;20346;-67
2022/04/05 01:49:48;;;;;;;3.53;3.42;;;;;;;7.48;100.00;100095.72;6112802;23;20399;-68
2022/04/05 01:52:15;;;;;;;4.82;4.63;;;;;;;7.66;100.00;100118.31;6087917;23;20030;-68
2022/04/05 01:54:42;;;;;;;3.70;3.60;;;;;;;7.72;100.00;100107.56;6117718;23;20022;-68
2022/04/05 01:57:09;;;;;;;3.58;3.45;;;;;;;7.67;100.00;100106.09;6097529;23;20494;-68
2022/04/05 01:59:37;;;;;;;3.92;3.75;;;;;;;7.70;100.00;100112.03;6111442;23;20035;-69
2022/04/05 02:02:06;;;;;;;3.38;3.28;;;;;;;7.73;100.00;100113.63;6114822;23;20052;-68
2022/04/05 02:04:34;;;;;;;3.60;3.50;;;;;;;7.59;100.00;100114.31;6070793;23;20033;-67
2022/04/05 02:07:00;;;;;;;3.40;3.30;;;;;;;7.49;100.00;100079.13;6116352;23;20022;-67
2022/04/05 02:09:27;;;;;;;3.50;3.40;;;;;;;7.73;100.00;100105.78;6114234;23;20099;-68
2022/04/05 02:11:54;;;;;;;3.45;3.35;;;;;;;7.76;100.00;100114.31;6096923;23;20561;-68
2022/04/05 02:14:20;;;;;;;5.20;5.00;;;;;;;7.42;100.00;100057.72;6102197;23;20246;-67
2022/04/05 02:16:47;;;;;;;3.90;3.70;;;;;;;7.74;100.00;100103.09;6125518;23;20181;-68
2022/04/05 02:19:13;;;;;;;4.93;4.72;;;;;;;7.70;100.00;100093.75;6113228;23;20079;-67
2022/04/05 02:21:40;;;;;;;3.38;3.28;;;;;;;7.67;100.00;100077.38;6122827;23;20048;-68
2022/04/05 02:24:07;;;;;;;3.53;3.42;;;;;;;7.26;100.00;100028.06;6105546;23;20108;-68
2022/04/05 02:26:33;;;;;;;3.38;3.28;;;;;;;7.86;100.00;100117.31;6110469;23;20014;-68
2022/04/05 02:29:00;;;;;;;3.40;3.30;;;;;;;7.86;100.00;100088.59;6121593;23;20729;-68
2022/04/05 02:31:26;;;;;;;3.58;3.47;;;;;;;7.83;100.00;100073.06;6117651;23;20025;-68
2022/04/05 02:33:53;;;;;;;3.47;3.38;;;;;;;7.79;100.00;100080.19;6119524;23;20025;-68
2022/04/05 02:36:19;;;;;;;3.58;3.47;;;;;;;7.84;100.00;100079.97;6121212;23;20353;-69
2022/04/05 02:38:48;;;;;;;3.90;3.70;;;;;;;7.96;100.00;100102.03;6104036;23;20018;-67
2022/04/05 02:41:14;;;;;;;3.83;3.63;;;;;;;8.02;100.00;100106.94;6126574;23;20426;-68
2022/04/05 02:43:40;;;;;;;3.70;3.50;;;;;;;8.06;100.00;100095.41;6120749;23;20021;-68
2022/04/05 02:46:08;;;;;;;3.42;3.33;;;;;;;7.90;100.00;100078.84;6127355;23;20120;-68
2022/04/05 02:48:35;;;;;;;3.90;3.72;;;;;;;8.07;100.00;100101.47;6123965;23;20029;-68
2022/04/05 02:51:03;;;;;;;3.40;3.30;;;;;;;7.98;100.00;100077.50;6113232;23;20171;-68
2022/04/05 02:53:30;;;;;;;3.65;3.55;;;;;;;8.05;100.00;100093.69;6108328;23;20038;-68
2022/04/05 02:55:56;;;;;;;3.95;3.78;;;;;;;8.08;100.00;100096.16;6123673;23;20017;-68
2022/04/05 02:58:23;;;;;;;3.58;3.47;;;;;;;8.10;100.00;100096.09;6118153;23;20089;-68
2022/04/05 03:00:49;;;;;;;3.53;3.42;;;;;;;7.80;100.00;100047.09;6123646;23;20017;-69
2022/04/05 03:03:16;;;;;;;3.40;3.30;;;;;;;7.78;100.00;100046.34;6119217;23;20024;-68
2022/04/05 03:05:42;;;;;;;3.80;3.60;;;;;;;8.16;100.00;100080.94;6118997;23;20264;-68
2022/04/05 03:08:09;;;;;;;4.07;3.88;;;;;;;7.93;100.00;100061.22;6098147;23;20543;-68
2022/04/05 03:10:36;;;;;;;3.50;3.40;;;;;;;8.18;100.00;100100.00;6132030;23;20224;-68
2022/04/05 03:13:04;;;;;;;3.55;3.45;;;;;;;8.08;100.00;100090.06;6135808;23;20053;-68
2022/04/05 03:15:30;;;;;;;3.40;3.30;;;;;;;8.18;100.00;100104.38;6135140;23;20028;-68
2022/04/05 03:17:58;;;;;;;3.50;3.40;;;;;;;8.16;100.00;100109.69;6125261;23;20478;-68
2022/04/05 03:20:24;;;;;;;4.85;4.65;;;;;;;8.19;100.00;100101.66;6115242;23;20138;-68
2022/04/05 03:22:52;;;;;;;3.50;3.40;;;;;;;8.16;100.00;100108.84;6103326;23;20560;-68
2022/04/05 03:25:19;;;;;;;4.95;4.75;;;;;;;8.21;100.00;100104.22;6109326;23;20088;-68
2022/04/05 03:27:45;;;;;;;3.78;3.65;;;;;;;8.15;100.00;100088.84;6109407;23;20038;-69
2022/04/05 03:30:13;;;;;;;4.15;3.95;;;;;;;8.07;100.00;100094.47;6102624;23;20014;-67
2022/04/05 03:32:40;;;;;;;3.50;3.30;;;;;;;7.97;100.00;100060.13;6097469;23;20092;-67
2022/04/05 03:35:07;;;;;;;3.65;3.55;;;;;;;8.27;100.00;100119.56;6116822;23;20030;-68
2022/04/05 03:37:34;;;;;;;3.60;3.50;;;;;;;8.27;100.00;100118.75;6104502;23;20627;-68
2022/04/05 03:40:02;;;;;;;3.50;3.40;;;;;;;8.32;100.00;100114.13;6102581;23;20024;-69
2022/04/05 03:42:29;;;;;;;4.13;3.92;;;;;;;8.11;100.00;100076.88;6121298;23;20046;-69
2022/04/05 03:44:55;;;;;;;3.63;3.53;;;;;;;8.11;100.00;100088.16;6114820;23;20488;-68
2022/04/05 03:47:23;;;;;;;5.32;5.13;;;;;;;8.06;100.00;100079.72;6103237;23;20201;-68
2022/04/05 03:49:49;;;;;;;3.50;3.40;;;;;;;8.29;100.00;100119.50;6107697;23;20153;-68
2022/04/05 03:52:15;;;;;;;4.88;4.68;;;;;;;8.15;100.00;100102.75;6096034;23;20048;-68
2022/04/05 03:54:42;;;;;;;3.90;3.60;;;;;;;8.24;100.00;100108.44;6117645;23;20614;-68
2022/04/05 03:57:08;;;;;;;5.20;5.00;;;;;;;8.30;100.00;100121.19;6107162;23;20028;-68
2022/04/05 03:59:35;;;;;;;4.20;4.00;;;;;;;8.31;100.00;100117.66;6111547;23;20383;-68
2022/04/05 04:02:02;;;;;;;3.40;3.30;;;;;;;8.14;100.00;100092.41;6110678;23;20013;-68
2022/04/05 04:04:29;;;;;;;3.50;3.40;;;;;;;8.31;100.00;100115.88;6118618;23;20009;-68
2022/04/05 04:06:56;;;;;;;3.50;3.40;;;;;;;8.22;100.00;100110.28;6106986;23;20039;-68
2022/04/05 04:09:22;;;;;;;3.60;3.50;;;;;;;8.30;100.00;100119.44;6114430;23;20084;-68
2022/04/05 04:11:49;;;;;;;3.40;3.30;;;;;;;8.31;100.00;100130.72;6133607;23;20435;-67
2022/04/05 04:14:16;;;;;;;5.38;5.07;;;;;;;8.34;100.00;100120.97;6115094;23;20340;-68
2022/04/05 04:16:43;;;;;;;3.70;3.60;;;;;;;8.30;100.00;100126.41;6126970;23;20037;-68
2022/04/05 04:19:09;;;;;;;4.35;4.18;;;;;;;8.31;100.00;100122.88;6105631;23;20034;-70
2022/04/05 04:21:36;;;;;;;3.50;3.40;;;;;;;7.44;100.00;100037.59;6113441;23;20032;-68
2022/04/05 04:24:02;;;;;;;3.60;3.50;;;;;;;8.30;100.00;100118.56;6119400;23;20033;-68
2022/04/05 04:26:29;;;;;;;3.50;3.40;;;;;;;8.34;100.00;100128.81;6084941;23;20836;-68
2022/04/05 04:28:58;;;;;;;3.83;3.70;;;;;;;8.29;100.00;100125.56;6103166;23;20089;-68
2022/04/05 04:31:25;;;;;;;4.82;4.63;;;;;;;8.19;100.00;100104.28;6079247;23;20867;-68
2022/04/05 04:33:51;;;;;;;3.50;3.40;;;;;;;8.35;100.00;100133.09;6085846;23;20104;-68
2022/04/05 04:36:18;;;;;;;5.57;5.28;;;;;;;8.36;100.00;100136.56;6089629;23;20021;-69
2022/04/05 04:38:45;;;;;;;3.60;3.50;;;;;;;8.41;100.00;100137.19;6111852;23;20021;-69
2022/04/05 04:41:12;;;;;;;4.95;4.75;;;;;;;8.31;100.00;100117.66;6100311;23;20024;-68
2022/04/05 04:43:39;;;;;;;3.60;3.50;;;;;;;8.25;100.00;100120.59;6089162;23;20073;-69
2022/04/05 04:46:05;;;;;;;18.02;17.13;;;;;;;8.29;100.00;100135.19;6018855;23;20490;-67
2022/04/05 04:48:32;;;;;;;3.90;3.70;;;;;;;8.39;100.00;100141.63;6078220;23;20194;-68
2022/04/05 04:50:59;;;;;;;3.70;3.50;;;;;;;8.12;100.00;100094.25;6116066;23;20015;-69
2022/04/05 04:53:25;;;;;;;4.78;4.57;;;;;;;8.11;100.00;100092.53;6115639;23;20076;-69
2022/04/05 04:55:52;;;;;;;3.45;3.35;;;;;;;8.42;100.00;100141.50;6116129;23;20043;-68
2022/04/05 04:58:34;;;;;;;3.80;3.70;;;;;;;8.44;100.00;100147.50;6104224;23;20489;-68
2022/04/05 05:01:00;;;;;;;3.92;3.75;;;;;;;8.31;100.00;100123.72;6083258;23;20021;-69
2022/04/05 05:03:27;;;;;;;4.07;3.88;;;;;;;8.43;100.00;100142.34;6103659;23;20046;-68
2022/04/05 05:05:54;;;;;;;3.78;3.67;;;;;;;8.29;100.00;100117.72;6112462;23;20228;-68
2022/04/05 05:08:21;;;;;;;4.82;4.63;;;;;;;8.25;100.00;100116.19;6119177;23;20026;-68
2022/04/05 05:10:47;;;;;;;3.83;3.65;;;;;;;8.32;100.00;100116.75;6125292;23;20042;-69
2022/04/05 05:13:16;;;;;;;5.93;5.63;;;;;;;8.27;100.00;100108.28;6090282;23;20089;-69
2022/04/05 05:15:42;;;;;;;3.40;3.30;;;;;;;8.58;100.00;100149.41;6125852;23;20355;-69
2022/04/05 05:18:10;;;;;;;4.38;4.20;;;;;;;8.51;100.00;100133.16;6075276;23;20054;-69
2022/04/05 05:20:37;;;;;;;4.03;3.83;;;;;;;8.63;100.00;100157.84;6103428;23;20465;-69
2022/04/05 05:23:04;;;;;;;3.60;3.50;;;;;;;8.62;100.00;100150.06;6111093;23;20145;-69
2022/04/05 05:25:30;;;;;;;3.90;3.70;;;;;;;8.61;100.00;100159.69;6112381;23;20403;-70
2022/04/05 05:27:57;;;;;;;3.60;3.50;;;;;;;8.19;100.00;100078.16;6111546;23;20408;-67
2022/04/05 05:30:23;;;;;;;5.40;5.20;;;;;;;8.68;100.00;100162.81;6112032;23;20021;-67
2022/04/05 05:32:50;;;;;;;4.00;3.80;;;;;;;8.44;100.00;100115.25;6113386;23;20109;-67
2022/04/05 05:35:18;;;;;;;5.68;5.45;;;;;;;8.70;100.00;100158.34;6083803;23;20088;-69
2022/04/05 05:37:47;;;;;;;4.10;3.90;;;;;;;8.74;100.00;100155.50;6112046;23;20335;-68
2022/04/05 05:40:15;;;;;;;5.97;5.70;;;;;;;8.72;100.00;100136.44;6105852;23;20254;-67
2022/04/05 05:42:55;;;;;;;3.80;3.70;;;;;;;8.82;100.00;100151.63;6111526;23;20041;-68
2022/04/05 05:45:22;;;;;;;5.60;5.40;;;;;;;8.82;100.00;100156.84;6106334;23;20122;-68
2022/04/05 05:47:49;;;;;;;3.75;3.63;;;;;;;8.83;100.00;100159.38;6098558;23;20024;-67
2022/04/05 05:50:16;;;;;;;5.68;5.45;;;;;;;8.60;100.00;100121.41;6098489;23;20035;-68
2022/04/05 05:52:44;;;;;;;4.15;3.95;;;;;;;8.64;100.00;100120.31;6106288;23;20089;-67
2022/04/05 05:55:13;;;;;;;4.70;4.50;;;;;;;8.88;100.00;100170.47;6097369;23;20032;-68
2022/04/05 05:57:40;;;;;;;4.07;3.88;;;;;;;8.64;100.00;100122.91;6111372;23;20594;-71
2022/04/05 06:00:08;;;;;;;3.80;3.70;;;;;;;8.74;100.00;100136.31;6097973;23;20025;-67
2022/04/05 06:02:39;;;;;;;3.80;3.70;;;;;;;8.90;100.00;100166.00;6106523;23;20122;-68
2022/04/05 06:05:07;;;;;;;4.40;4.20;;;;;;;8.92;100.00;100174.59;6100986;23;20025;-69
2022/04/05 06:07:41;;;;;;;4.10;3.90;;;;;;;8.71;100.00;100132.09;6104523;23;20025;-68
2022/04/05 06:10:10;;;;;;;4.47;4.28;;;;;;;8.76;100.00;100135.34;6101691;23;20029;-68
2022/04/05 06:12:41;;;;;;;4.32;4.03;;;;;;;8.96;100.00;100164.78;6105135;23;20051;-68
2022/04/05 06:15:11;;;;;;;4.03;3.88;;;;;;;8.98;100.00;100170.81;6098645;23;20291;-68
2022/04/05 06:17:45;;;;;;;4.55;4.35;;;;;;;8.86;100.00;100156.63;6113574;23;20216;-68
2022/04/05 06:20:14;;;;;;;5.00;4.78;;;;;;;9.02;100.00;100172.34;6109423;23;20052;-68
2022/04/05 06:23:02;;;;;;;4.95;4.65;;;;;;;8.94;100.00;100164.91;6086861;23;20164;-68
2022/04/05 06:25:31;;;;;;;4.10;3.90;;;;;;;9.05;100.00;100185.25;6099343;23;20028;-68
2022/04/05 06:28:02;;;;;;;4.10;3.90;;;;;;;9.01;100.00;100183.72;6102713;23;20029;-71
2022/04/05 06:30:30;;;;;;;4.10;3.90;;;;;;;8.86;100.00;100155.75;6107258;23;20299;-72
2022/04/05 06:33:13;;;;;;;4.30;4.10;;;;;;;9.09;100.00;100192.00;6109904;23;20041;-71
2022/04/05 06:35:43;;;;;;;4.03;3.83;;;;;;;9.10;100.00;100193.72;6103635;23;20018;-72
2022/04/05 06:38:11;;;;;;;4.90;4.70;;;;;;;9.14;100.00;100186.50;6108924;23;20112;-71
2022/04/05 06:40:38;;;;;;;4.90;4.50;;;;;;;9.12;100.00;100193.59;6081108;23;20113;-69
2022/04/05 06:43:05;;;;;;;4.43;4.13;;;;;;;8.88;100.00;100162.63;6108528;23;20572;-68
2022/04/05 06:45:31;;;;;;;4.43;4.22;;;;;;;9.10;100.00;100198.94;6107901;23;20268;-67
2022/04/05 06:47:58;;;;;;;4.07;3.88;;;;;;;8.97;100.00;100172.56;6105898;23;20539;-67
2022/04/05 06:50:25;;;;;;;5.80;5.50;;;;;;;9.12;100.00;100202.31;6107804;23;20368;-68
2022/04/05 06:52:54;;;;;;;4.22;4.03;;;;;;;9.15;100.00;100201.31;6110137;23;20089;-71
2022/04/05 06:55:21;;;;;;;4.18;3.97;;;;;;;9.06;100.00;100184.34;6113136;23;20746;-71
2022/04/05 06:57:48;;;;;;;3.92;3.78;;;;;;;9.18;100.00;100203.75;6101329;23;20510;-67
2022/04/05 07:00:18;;;;;;;7.20;6.80;;;;;;;8.93;100.00;100157.13;6105009;23;20034;-67
2022/04/05 07:02:44;;;;;;;4.18;3.97;;;;;;;9.13;100.00;100201.38;6107332;23;20045;-71
2022/04/05 07:05:12;;;;;;;4.78;4.57;;;;;;;9.19;100.00;100201.06;6107257;23;20013;-72
2022/04/05 07:07:39;;;;;;;3.70;3.60;;;;;;;9.06;100.00;100176.50;6115970;23;20095;-73
2022/04/05 07:10:07;;;;;;;4.25;4.05;;;;;;;9.23;100.00;100206.13;6118441;23;20444;-66
2022/04/05 07:12:34;;;;;;;4.30;4.10;;;;;;;9.08;100.00;100173.75;6104702;23;20036;-68
2022/04/05 07:15:01;;;;;;;4.00;3.80;;;;;;;8.95;100.00;100163.13;6125714;23;20044;-69
2022/04/05 07:17:27;;;;;;;5.15;4.95;;;;;;;9.24;100.00;100207.81;6101099;23;20127;-69
2022/04/05 07:20:14;;;;;;;6.13;5.82;;;;;;;9.24;100.00;100215.66;6115247;23;20023;-67
2022/04/05 07:22:45;;;;;;;3.70;3.60;;;;;;;9.26;100.00;100219.03;6077398;23;20073;-67
2022/04/05 07:25:12;;;;;;;4.95;4.75;;;;;;;8.94;100.00;100162.28;6067734;23;21047;-67
2022/04/05 07:27:38;;;;;;;4.15;3.95;;;;;;;9.13;100.00;100187.47;6093887;23;20014;-70
2022/04/05 07:30:06;;;;;;;4.00;3.80;;;;;;;9.27;100.00;100205.03;6066815;23;20098;-69
2022/04/05 07:32:40;;;;;;;4.63;4.43;;;;;;;9.24;100.00;100198.19;6078230;23;20025;-68
2022/04/05 07:35:07;;;;;;;4.13;3.92;;;;;;;9.28;100.00;100214.56;6084107;23;20078;-68
2022/04/05 07:37:35;;;;;;;4.55;4.35;;;;;;;9.26;100.00;100203.34;6074408;23;20022;-68
2022/04/05 07:40:05;;;;;;;4.03;3.83;;;;;;;9.26;100.00;100203.34;6086165;23;20264;-68
2022/04/05 07:42:32;;;;;;;3.70;3.60;;;;;;;9.26;100.00;100205.94;6058526;23;20381;-68
2022/04/05 07:44:58;;;;;;;4.00;3.80;;;;;;;9.31;100.00;100203.94;6070154;23;20123;-68
2022/04/05 07:47:25;;;;;;;5.55;5.35;;;;;;;9.25;100.00;100189.41;6078584;23;20026;-68
2022/04/05 07:49:51;;;;;;;3.92;3.80;;;;;;;9.35;100.00;100202.84;6057175;23;20014;-68
2022/04/05 07:52:18;;;;;;;5.90;5.65;;;;;;;9.35;100.00;100193.19;6066855;23;20112;-68
2022/04/05 07:54:44;;;;;;;4.70;4.50;;;;;;;9.37;100.00;100195.75;6063990;23;20022;-67
2022/04/05 07:57:13;;;;;;;5.53;5.32;;;;;;;9.33;100.00;100191.59;6080198;23;20111;-68
2022/04/05 07:59:40;;;;;;;4.10;3.90;;;;;;;9.53;100.00;100204.44;6087907;23;20230;-68
2022/04/05 08:02:06;;;;;;;3.92;3.80;;;;;;;9.58;100.00;100198.94;6075572;23;20014;-67
2022/04/05 08:04:53;;;;;;;4.18;3.97;;;;;;;9.54;100.00;100171.22;6089225;23;20032;-68
2022/04/05 08:07:19;;;;;;;5.75;5.50;;;;;;;9.68;100.00;100194.88;6059200;23;20542;-69
2022/04/05 08:09:46;;;;;;;4.85;4.65;;;;;;;9.30;100.00;100153.34;6082459;23;20022;-72
2022/04/05 08:12:12;;;;;;;6.32;6.03;;;;;;;9.37;100.00;100154.69;6088688;23;20423;-71
2022/04/05 08:14:39;;;;;;;4.20;4.00;;;;;;;9.47;100.00;100180.38;6081591;23;20339;-72
2022/04/05 08:17:06;;;;;;;4.20;4.00;;;;;;;9.33;100.00;100189.81;6073476;23;20197;-72
2022/04/05 08:19:32;;;;;;;4.20;4.00;;;;;;;9.67;100.00;100211.53;6082562;23;20038;-72
2022/04/05 08:21:59;;;;;;;3.92;3.75;;;;;;;9.75;100.00;100205.84;6092274;23;20022;-72
2022/04/05 08:24:25;;;;;;;4.72;4.53;;;;;;;9.63;100.00;100173.31;6091293;23;20120;-73
2022/04/05 08:26:52;;;;;;;4.40;4.20;;;;;;;9.75;100.00;100170.00;6108819;23;20429;-77
2022/04/05 08:29:18;;;;;;;5.47;5.07;;;;;;;9.39;100.00;100107.47;6111625;23;20009;-76
2022/04/05 08:31:45;;;;;;;4.10;3.90;;;;;;;9.10;100.00;100036.66;6118623;23;20029;-75
2022/04/05 08:34:11;;;;;;;6.15;5.53;;;;;;;10.01;100.00;100199.13;6106873;23;20173;-72
2022/04/05 08:36:38;;;;;;;4.10;3.90;;;;;;;9.89;100.00;100173.63;6096200;23;20081;-72
2022/04/05 08:39:04;;;;;;;4.13;3.92;;;;;;;9.93;100.00;100183.81;6106202;23;20084;-74
2022/04/05 08:41:35;;;;;;;4.50;4.30;;;;;;;10.05;100.00;100210.28;6088940;23;21364;-73
2022/04/05 08:44:03;;;;;;;4.50;4.30;;;;;;;10.05;100.00;100205.03;6122831;23;20088;-74
2022/04/05 08:46:34;;;;;;;4.75;4.55;;;;;;;10.04;100.00;100191.06;6074702;23;20344;-70
2022/04/05 08:49:01;;;;;;;4.47;4.18;;;;;;;10.05;100.00;100181.44;6122337;23;20533;-69
2022/04/05 08:51:30;;;;;;;4.57;4.38;;;;;;;10.03;100.00;100178.06;6112254;23;20047;-73
2022/04/05 08:53:57;;;;;;;3.97;3.80;;;;;;;10.26;100.00;100211.63;6097557;23;20032;-70
2022/04/05 08:56:27;;;;;;;5.78;5.47;;;;;;;10.06;100.00;100168.22;6104935;23;20052;-69
2022/04/05 08:58:53;;;;;;;4.75;4.10;;;;;;;9.94;100.00;100169.81;6104287;23;20083;-72
2022/04/05 09:01:21;;;;;;;5.68;5.45;;;;;;;10.05;100.00;100189.31;6093764;23;20273;-70
2022/04/05 09:03:47;;;;;;;4.40;4.20;;;;;;;9.05;100.00;100017.75;6109352;23;20446;-70
2022/04/05 09:06:28;;;;;;;5.78;5.50;;;;;;;10.19;100.00;100207.69;6108889;23;20063;-69
2022/04/05 09:09:05;;;;;;;4.20;4.00;;;;;;;10.24;100.00;100223.16;6127159;23;20356;-70
2022/04/05 09:11:32;;;;;;;4.10;3.90;;;;;;;10.17;100.00;100204.31;6103890;23;20262;-69
2022/04/05 09:14:01;;;;;;;4.35;4.15;;;;;;;10.22;100.00;100220.59;6112855;23;20497;-69
2022/04/05 09:16:31;;;;;;;4.50;4.30;;;;;;;10.36;100.00;100220.69;6115603;23;20482;-69
2022/04/05 09:19:17;;;;;;;4.55;4.22;;;;;;;9.31;100.00;100031.13;6116864;23;20084;-72
2022/04/05 09:21:52;;;;;;;4.50;4.30;;;;;;;10.29;100.00;100206.22;6089224;23;20017;-69
2022/04/05 09:24:19;;;;;;;5.32;5.13;;;;;;;10.09;100.00;100185.56;6100898;23;20084;-69
2022/04/05 09:26:46;;;;;;;4.10;3.90;;;;;;;10.38;100.00;100224.09;6090025;23;20080;-70
2022/04/05 09:29:14;;;;;;;5.60;5.40;;;;;;;10.18;100.00;100200.75;6108943;23;20009;-69
2022/04/05 09:31:50;;;;;;;4.20;4.00;;;;;;;10.37;100.00;100222.38;6086272;23;20033;-71
2022/04/05 09:34:21;;;;;;;6.05;5.75;;;;;;;10.06;100.00;100149.88;6090390;23;20010;-68
2022/04/05 09:36:50;;;;;;;4.20;4.00;;;;;;;10.57;100.00;100217.72;6113483;23;20014;-69
2022/04/05 09:39:18;;;;;;;5.40;5.20;;;;;;;10.76;100.00;100222.69;6074166;23;20079;-68
2022/04/05 09:42:08;;;;;;;4.38;4.07;;;;;;;10.75;100.00;100228.91;6107559;23;20057;-68
2022/04/05 09:44:43;;;;;;;5.00;4.70;;;;;;;11.02;100.00;100223.72;6096768;23;20082;-72
2022/04/05 09:47:17;;;;;;;4.43;4.22;;;;;;;10.96;100.00;100226.75;6108807;23;20053;-72
2022/04/05 09:49:49;;;;;;;4.30;4.10;;;;;;;10.89;100.00;100171.16;6087724;23;20021;-68
2022/04/05 09:52:28;;;;;;;6.68;6.35;;;;;;;11.18;100.00;100207.88;6099792;23;20021;-69
2022/04/05 09:54:55;;;;;;;5.15;4.85;;;;;;;11.34;100.00;100210.38;6078952;23;20075;-71
2022/04/05 09:57:30;;;;;;;5.00;4.80;;;;;;;11.27;100.00;100222.22;6112406;23;20275;-68
2022/04/05 10:00:09;;;;;;;4.78;4.57;;;;;;;11.30;100.00;100222.84;6106851;23;20486;-70
2022/04/05 10:02:35;;;;;;;4.85;4.45;;;;;;;11.46;100.00;100206.97;6102749;23;20274;-72
2022/04/05 10:05:10;;;;;;;4.47;4.28;;;;;;;11.41;100.00;100211.69;6110942;23;20045;-70
2022/04/05 10:07:37;;;;;;;4.45;4.25;;;;;;;11.62;100.00;100198.09;6092572;23;20054;-67
2022/04/05 10:10:07;;;;;;;4.30;4.10;;;;;;;12.05;100.00;100219.03;6116996;23;20223;-67
2022/04/05 10:12:33;;;;;;;4.50;4.28;;;;;;;12.05;100.00;100203.25;6087206;23;20096;-67
2022/04/05 10:15:00;;;;;;;4.32;4.13;;;;;;;12.13;100.00;100208.81;6116019;23;20032;-68
2022/04/05 10:17:28;;;;;;;6.28;5.97;;;;;;;12.32;100.00;100197.91;6116610;23;20376;-70
2022/04/05 10:19:56;;;;;;;4.40;4.20;;;;;;;12.29;100.00;100214.75;6109413;23;20029;-68
2022/04/05 10:22:24;;;;;;;6.35;6.05;;;;;;;12.30;100.00;100208.53;6106361;23;20076;-68
2022/04/05 10:24:53;;;;;;;4.30;4.10;;;;;;;12.11;100.00;100197.56;6109075;23;20284;-70
2022/04/05 10:27:22;;;;;;;6.15;5.85;;;;;;;11.93;100.00;100229.38;6098223;23;20224;-70
2022/04/05 10:29:58;;;;;;;4.65;4.35;;;;;;;10.87;100.00;100060.16;6102573;23;20018;-68
2022/04/05 10:32:44;;;;;;;5.80;5.55;;;;;;;11.80;100.00;100211.84;6106688;23;20314;-68
2022/04/05 10:35:10;;;;;;;5.07;4.78;;;;;;;11.96;100.00;100189.72;6076517;23;20030;-70
2022/04/05 10:37:39;;;;;;;4.80;4.60;;;;;;;12.09;99.45;100218.72;6102533;23;20104;-68
2022/04/05 10:40:05;;;;;;;4.68;4.47;;;;;;;12.00;98.84;100242.13;6108371;23;20020;-67
2022/04/05 10:42:35;;;;;;;5.25;4.95;;;;;;;11.80;100.00;100217.09;6123045;23;20095;-67
2022/04/05 10:45:09;;;;;;;4.60;4.40;;;;;;;11.91;99.77;100231.28;6123395;23;20031;-70
2022/04/05 10:48:12;;;;;;;5.35;5.05;;;;;;;11.67;99.73;100227.59;6107480;23;20017;-70
2022/04/05 10:51:02;;;;;;;8.02;4.32;;;;;;;11.79;100.00;100203.13;6119603;23;20029;-68
2022/04/05 10:53:32;;;;;;;5.45;5.15;;;;;;;11.78;99.37;100210.16;6092909;23;20017;-68
2022/04/05 10:56:04;;;;;;;4.70;4.50;;;;;;;12.00;99.51;100226.34;6110829;23;20020;-68
2022/04/05 10:58:31;;;;;;;4.50;4.30;;;;;;;12.14;96.00;100207.88;6114979;23;20029;-69
2022/04/05 11:01:14;;;;;;;4.40;4.20;;;;;;;12.25;96.66;100207.13;6084931;23;20019;-68
2022/04/05 11:03:41;;;;;;;4.10;3.90;;;;;;;12.30;96.50;100190.09;6112531;23;20021;-75
2022/04/05 11:06:07;;;;;;;4.82;4.57;;;;;;;12.44;95.32;100167.28;6112661;23;20027;-74
2022/04/05 11:08:36;;;;;;;4.60;4.40;;;;;;;12.69;95.08;100183.09;6111954;23;20029;-68
2022/04/05 11:11:05;;;;;;;4.68;4.47;;;;;;;12.68;91.75;100201.59;6136150;23;20036;-68
2022/04/05 11:13:34;;;;;;;4.82;4.60;;;;;;;12.55;91.97;100194.56;6098840;23;20018;-68
2022/04/05 11:16:03;;;;;;;4.60;4.40;;;;;;;12.28;92.13;100189.38;6115572;23;20041;-68
2022/04/05 11:18:34;;;;;;;5.40;5.20;;;;;;;12.51;93.05;100198.34;6108740;23;20239;-69
2022/04/05 11:21:06;;;;;;;5.15;4.85;;;;;;;12.71;92.70;100202.25;6111310;23;20040;-73
2022/04/05 11:23:43;;;;;;;4.60;4.40;;;;;;;12.52;92.60;100213.19;6111482;23;20518;-72
2022/04/05 11:26:26;;;;;;;5.00;4.80;;;;;;;12.43;94.85;100219.09;6113344;23;20438;-68
2022/04/05 11:28:54;;;;;;;4.45;4.25;;;;;;;12.41;94.84;100220.09;6107379;23;20049;-69
2022/04/05 11:31:39;;;;;;;6.35;6.05;;;;;;;12.37;97.27;100186.13;6106715;23;20029;-68